Time;durP1;ratioP1;P1;durP2;ratioP2;P2;SDS_P1;SDS_P2;PMS_P1;PMS_P2;Temp;Humidity;BMP_temperature;BMP_pressure;BME280_temperature;BME280_humidity;BME280_pressure;Samples;Min_cycle;Max_cycle;Signal;HPM_P1;HPM_P2
2021/05/15 00:02:26;;;;;;;2.30;1.50;;;26.30;49.70;;;;;;5144913;27;20829;-40
2021/05/15 00:04:55;;;;;;;1.37;1.27;;;26.30;49.30;;;;;;5144286;27;20494;-40
2021/05/15 00:07:23;;;;;;;2.50;1.67;;;26.10;49.60;;;;;;5144986;27;20445;-40
2021/05/15 00:09:52;;;;;;;4.57;1.70;;;26.10;49.20;;;;;;5144308;27;20433;-40
2021/05/15 00:12:20;;;;;;;3.30;1.57;;;26.10;49.40;;;;;;5145402;27;20432;-41
2021/05/15 00:14:49;;;;;;;2.87;1.40;;;26.10;49.40;;;;;;5143615;27;20772;-41
2021/05/15 00:17:18;;;;;;;1.43;1.20;;;26.10;48.70;;;;;;5144586;27;20488;-41
2021/05/15 00:19:48;;;;;;;1.70;1.60;;;26.00;48.50;;;;;;5144007;27;20476;-40
2021/05/15 00:22:16;;;;;;;2.23;2.03;;;26.00;49.90;;;;;;5144444;27;21022;-40
2021/05/15 00:24:45;;;;;;;1.40;1.30;;;26.00;48.70;;;;;;5144909;27;20450;-40
2021/05/15 00:27:14;;;;;;;2.80;1.40;;;25.80;48.50;;;;;;5131720;27;20450;-40
2021/05/15 00:29:42;;;;;;;2.10;1.53;;;25.60;48.00;;;;;;5122837;28;20449;-40
2021/05/15 00:32:11;;;;;;;3.30;1.60;;;25.60;48.10;;;;;;5124034;28;20441;-40
2021/05/15 00:34:40;;;;;;;2.67;1.50;;;25.60;48.90;;;;;;5123375;28;20459;-42
2021/05/15 00:37:09;;;;;;;2.50;1.57;;;25.60;48.70;;;;;;5123726;28;20484;-40
2021/05/15 00:39:37;;;;;;;3.63;1.63;;;25.70;49.40;;;;;;5123704;28;20440;-40
2021/05/15 00:42:06;;;;;;;3.00;1.60;;;25.60;48.90;;;;;;5123905;28;20453;-40
2021/05/15 00:44:44;;;;;;;2.80;1.57;;;25.50;49.20;;;;;;5124445;28;20480;-39
2021/05/15 00:47:17;;;;;;;2.67;1.63;;;25.40;49.90;;;;;;5128398;28;20457;-40
2021/05/15 00:49:47;;;;;;;3.13;1.30;;;25.30;49.30;;;;;;5127731;28;20437;-41
2021/05/15 00:52:17;;;;;;;2.90;1.70;;;25.30;50.00;;;;;;5128512;28;20460;-39
2021/05/15 00:54:47;;;;;;;2.97;1.80;;;25.30;50.40;;;;;;5139015;27;20433;-39
2021/05/15 00:57:16;;;;;;;1.57;1.23;;;25.30;49.50;;;;;;5148841;27;20503;-39
2021/05/15 00:59:44;;;;;;;2.20;2.00;;;25.20;49.90;;;;;;5147306;27;20462;-40
2021/05/15 01:02:14;;;;;;;2.07;1.97;;;25.20;50.10;;;;;;5148745;27;20920;-39
2021/05/15 01:04:43;;;;;;;4.20;3.50;;;25.20;50.50;;;;;;5147970;27;20440;-40
2021/05/15 01:07:13;;;;;;;1.83;1.40;;;25.10;50.30;;;;;;5149233;27;20474;-38
2021/05/15 01:09:41;;;;;;;1.73;1.63;;;25.00;50.70;;;;;;5147881;27;20478;-40
2021/05/15 01:12:11;;;;;;;1.87;1.20;;;25.00;51.00;;;;;;5148661;27;20423;-41
2021/05/15 01:14:40;;;;;;;1.50;1.33;;;24.90;51.50;;;;;;5147402;27;20445;-38
2021/05/15 01:17:10;;;;;;;2.57;1.40;;;24.80;52.40;;;;;;5148343;27;20476;-40
2021/05/15 01:19:39;;;;;;;1.50;1.40;;;24.80;53.00;;;;;;5147793;27;20432;-40
2021/05/15 01:22:10;;;;;;;2.03;1.50;;;24.80;53.60;;;;;;5148817;27;20441;-40
2021/05/15 01:24:39;;;;;;;1.77;1.60;;;24.70;53.80;;;;;;5148119;27;20441;-41
2021/05/15 01:27:09;;;;;;;1.90;1.70;;;24.70;54.20;;;;;;5136517;27;20445;-39
2021/05/15 01:29:38;;;;;;;1.93;1.67;;;24.70;54.50;;;;;;5126743;28;20446;-40
2021/05/15 01:32:07;;;;;;;2.50;2.10;;;24.60;54.80;;;;;;5127631;28;20460;-39
2021/05/15 01:34:36;;;;;;;2.10;2.00;;;24.60;55.50;;;;;;5134461;27;20548;-37
2021/05/15 01:37:04;;;;;;;2.00;1.80;;;24.60;55.80;;;;;;5147152;27;20487;-40
2021/05/15 01:39:34;;;;;;;2.47;1.77;;;24.40;55.80;;;;;;5146661;27;20838;-38
2021/05/15 01:42:03;;;;;;;3.10;2.07;;;24.40;56.70;;;;;;5147520;27;20452;-39
2021/05/15 01:44:33;;;;;;;2.40;1.87;;;24.30;57.30;;;;;;5145956;27;20525;-41
2021/05/15 01:47:02;;;;;;;2.80;1.93;;;24.20;58.00;;;;;;5147424;27;20440;-41
2021/05/15 01:49:30;;;;;;;5.70;2.07;;;24.10;58.90;;;;;;5147247;27;20433;-40
2021/05/15 01:51:59;;;;;;;2.20;2.00;;;24.00;59.70;;;;;;5147349;27;20445;-39
2021/05/15 01:54:27;;;;;;;2.73;1.73;;;23.90;59.80;;;;;;5146868;27;20455;-38
2021/05/15 01:56:57;;;;;;;2.30;2.20;;;23.80;60.20;;;;;;5146630;27;20545;-37
2021/05/15 01:59:25;;;;;;;4.57;2.37;;;23.80;61.10;;;;;;5146116;27;20441;-37
2021/05/15 02:01:54;;;;;;;2.00;1.90;;;23.60;62.70;;;;;;5147228;27;20448;-39
2021/05/15 02:04:22;;;;;;;4.80;2.67;;;23.50;63.60;;;;;;5146936;27;20453;-39
2021/05/15 02:06:51;;;;;;;3.37;2.20;;;23.40;64.10;;;;;;5146671;27;20556;-37
2021/05/15 02:09:19;;;;;;;2.77;2.17;;;23.40;64.20;;;;;;5139416;27;20431;-39
2021/05/15 02:11:48;;;;;;;2.20;2.10;;;23.20;64.20;;;;;;5147070;27;20453;-38
2021/05/15 02:14:18;;;;;;;5.00;2.77;;;23.20;64.80;;;;;;5146267;27;20441;-37
2021/05/15 02:16:46;;;;;;;2.17;1.97;;;23.20;65.30;;;;;;5146751;27;20452;-37
2021/05/15 02:19:15;;;;;;;2.37;1.90;;;23.20;66.00;;;;;;5146386;27;20852;-37
2021/05/15 02:21:44;;;;;;;2.97;2.33;;;23.10;65.60;;;;;;5145956;27;20479;-38
2021/05/15 02:24:13;;;;;;;2.60;2.00;;;23.00;65.40;;;;;;5146549;27;20544;-39
2021/05/15 02:26:42;;;;;;;3.57;2.67;;;22.90;66.50;;;;;;5140972;27;20496;-37
2021/05/15 02:29:10;;;;;;;2.33;2.10;;;22.90;66.20;;;;;;5145433;27;20433;-38
2021/05/15 02:31:40;;;;;;;3.23;2.90;;;22.90;66.80;;;;;;5129996;27;20510;-36
2021/05/15 02:34:08;;;;;;;2.23;2.03;;;22.80;66.90;;;;;;5146355;27;20449;-38
2021/05/15 02:36:37;;;;;;;2.50;2.30;;;22.80;67.40;;;;;;5146862;27;20518;-38
2021/05/15 02:39:06;;;;;;;2.57;1.97;;;22.70;66.90;;;;;;5146447;27;20515;-37
2021/05/15 02:41:34;;;;;;;2.40;2.20;;;22.70;66.90;;;;;;5146725;27;20438;-38
2021/05/15 02:44:03;;;;;;;3.10;2.57;;;22.50;67.30;;;;;;5145489;27;20459;-38
2021/05/15 02:46:32;;;;;;;3.83;2.30;;;22.50;66.90;;;;;;5147262;27;20562;-38
2021/05/15 02:49:04;;;;;;;2.00;1.80;;;22.40;67.20;;;;;;5143234;27;20528;-39
2021/05/15 02:51:33;;;;;;;2.10;2.00;;;22.40;66.50;;;;;;5145351;27;20448;-39
2021/05/15 02:54:01;;;;;;;2.33;1.90;;;22.30;66.40;;;;;;5144365;27;20445;-39
2021/05/15 02:56:30;;;;;;;3.03;2.13;;;22.20;67.60;;;;;;5146746;27;20431;-35
2021/05/15 02:58:58;;;;;;;2.20;2.00;;;22.20;67.50;;;;;;5144680;27;20448;-38
2021/05/15 03:01:27;;;;;;;2.30;2.10;;;22.10;67.20;;;;;;5144412;27;20416;-38
2021/05/15 03:03:55;;;;;;;3.70;2.00;;;22.00;67.30;;;;;;5145527;27;20423;-38
2021/05/15 03:06:25;;;;;;;5.10;2.10;;;21.90;67.10;;;;;;5124562;27;20449;-39
2021/05/15 03:08:54;;;;;;;4.07;2.60;;;21.80;68.60;;;;;;5144668;27;20429;-39
2021/05/15 03:11:23;;;;;;;3.60;2.30;;;21.70;68.70;;;;;;5143095;27;20426;-39
2021/05/15 03:13:51;;;;;;;2.83;2.00;;;21.60;68.60;;;;;;5149913;27;20419;-38
2021/05/15 03:16:20;;;;;;;3.50;2.10;;;21.60;69.40;;;;;;5128870;27;20424;-37
2021/05/15 03:18:48;;;;;;;2.83;1.77;;;21.50;68.70;;;;;;5143703;27;20487;-36
2021/05/15 03:21:17;;;;;;;1.93;1.83;;;21.40;69.40;;;;;;5144098;27;20433;-37
2021/05/15 03:23:47;;;;;;;4.03;2.40;;;21.30;69.70;;;;;;5144602;27;20872;-38
2021/05/15 03:26:15;;;;;;;3.53;2.37;;;21.20;70.20;;;;;;5143132;27;20593;-39
2021/05/15 03:28:44;;;;;;;3.80;2.33;;;21.10;70.30;;;;;;5143292;27;20449;-36
2021/05/15 03:31:12;;;;;;;2.90;2.33;;;21.00;70.70;;;;;;5144643;27;20479;-36
2021/05/15 03:33:41;;;;;;;4.87;2.60;;;20.90;71.00;;;;;;5144333;27;20476;-38
2021/05/15 03:36:10;;;;;;;2.40;1.90;;;20.90;71.20;;;;;;5145760;27;20874;-38
2021/05/15 03:38:39;;;;;;;2.30;2.07;;;20.80;71.80;;;;;;5151081;27;20495;-39
2021/05/15 03:41:08;;;;;;;5.37;2.30;;;20.70;72.60;;;;;;5144395;27;20472;-36
2021/05/15 03:43:37;;;;;;;2.63;2.03;;;20.60;72.90;;;;;;5143975;27;20912;-38
2021/05/15 03:46:06;;;;;;;2.53;2.20;;;20.40;73.20;;;;;;5145082;27;20481;-36
2021/05/15 03:48:34;;;;;;;3.20;2.10;;;20.50;72.80;;;;;;5144323;27;20484;-38
2021/05/15 03:51:03;;;;;;;2.97;2.50;;;20.40;73.40;;;;;;5144567;27;20432;-36
2021/05/15 03:53:32;;;;;;;8.50;2.53;;;20.30;73.90;;;;;;5143966;27;20868;-37
2021/05/15 03:56:00;;;;;;;3.83;2.30;;;20.20;74.40;;;;;;5145011;27;20445;-36
2021/05/15 03:58:31;;;;;;;3.80;2.50;;;20.00;75.50;;;;;;5143168;27;20480;-38
2021/05/15 04:00:59;;;;;;;3.00;2.57;;;19.90;75.90;;;;;;5144711;27;20495;-35
2021/05/15 04:03:28;;;;;;;2.70;2.50;;;19.80;76.50;;;;;;5143361;27;20423;-38
2021/05/15 04:05:56;;;;;;;3.93;2.60;;;19.80;77.50;;;;;;5141896;27;20444;-36
2021/05/15 04:08:25;;;;;;;3.17;2.40;;;19.70;77.90;;;;;;5142759;27;20560;-37
2021/05/15 04:10:53;;;;;;;5.07;2.90;;;19.60;78.60;;;;;;5143404;27;20448;-39
2021/05/15 04:13:29;;;;;;;2.53;2.33;;;19.50;79.40;;;;;;5143319;27;20459;-34
2021/05/15 04:15:59;;;;;;;4.00;3.20;;;19.40;80.60;;;;;;5142663;27;20428;-38
2021/05/15 04:18:31;;;;;;;2.73;2.50;;;19.30;80.90;;;;;;5143660;27;20484;-44
2021/05/15 04:20:59;;;;;;;4.90;2.90;;;19.20;81.50;;;;;;5143513;27;20515;-38
2021/05/15 04:23:28;;;;;;;3.50;2.80;;;19.10;82.40;;;;;;5143355;27;20540;-40
2021/05/15 04:25:56;;;;;;;3.57;3.27;;;19.10;83.00;;;;;;5138092;27;20495;-38
2021/05/15 04:28:25;;;;;;;2.83;2.53;;;19.00;83.80;;;;;;5130341;28;20449;-39
2021/05/15 04:30:54;;;;;;;3.27;2.97;;;18.90;84.60;;;;;;5142734;27;20465;-38
2021/05/15 04:33:24;;;;;;;3.63;2.83;;;18.80;84.90;;;;;;5143128;27;20445;-38
2021/05/15 04:35:53;;;;;;;4.50;3.57;;;18.70;85.80;;;;;;5143412;27;20452;-39
2021/05/15 04:38:22;;;;;;;3.87;2.63;;;18.60;85.90;;;;;;5143214;27;20508;-39
2021/05/15 04:40:51;;;;;;;3.33;3.03;;;18.50;87.00;;;;;;5143219;27;20449;-39
2021/05/15 04:43:19;;;;;;;6.93;3.20;;;18.40;88.10;;;;;;5126636;28;20452;-39
2021/05/15 04:45:48;;;;;;;5.03;3.00;;;18.30;88.00;;;;;;5142981;28;20507;-37
2021/05/15 04:48:16;;;;;;;7.17;3.13;;;18.30;88.40;;;;;;5143002;28;20563;-39
2021/05/15 04:50:46;;;;;;;3.30;2.80;;;18.10;88.80;;;;;;5143576;28;20453;-36
2021/05/15 04:53:14;;;;;;;6.67;3.27;;;18.00;90.00;;;;;;5143365;28;20452;-39
2021/05/15 04:55:43;;;;;;;4.07;3.10;;;17.90;90.10;;;;;;5142762;28;20912;-39
2021/05/15 04:58:12;;;;;;;3.77;3.37;;;17.90;90.30;;;;;;5144117;28;20504;-39
2021/05/15 05:00:40;;;;;;;5.70;3.20;;;17.90;90.50;;;;;;5142640;28;20824;-35
2021/05/15 05:03:09;;;;;;;4.17;3.27;;;17.80;90.80;;;;;;5143358;28;20891;-37
2021/05/15 05:05:37;;;;;;;3.93;2.90;;;17.70;91.20;;;;;;5142997;28;20506;-39
2021/05/15 05:08:07;;;;;;;3.50;2.87;;;17.70;91.30;;;;;;5142202;27;20485;-36
2021/05/15 05:10:36;;;;;;;8.90;3.23;;;17.60;91.30;;;;;;5143115;28;20433;-37
2021/05/15 05:13:05;;;;;;;3.00;2.80;;;17.50;91.60;;;;;;5142465;28;20461;-38
2021/05/15 05:15:33;;;;;;;3.07;2.77;;;17.40;91.90;;;;;;5146532;27;20474;-38
2021/05/15 05:18:02;;;;;;;2.83;2.57;;;17.30;91.90;;;;;;5139115;28;20533;-37
2021/05/15 05:20:30;;;;;;;4.80;2.90;;;17.30;92.20;;;;;;5141883;28;20457;-38
2021/05/15 05:22:59;;;;;;;5.17;3.10;;;17.20;91.40;;;;;;5142267;28;20909;-40
2021/05/15 05:25:29;;;;;;;4.13;3.27;;;17.20;91.40;;;;;;5143296;28;20464;-39
2021/05/15 05:27:58;;;;;;;3.83;2.80;;;17.10;91.00;;;;;;5138337;27;20463;-39
2021/05/15 05:30:27;;;;;;;3.07;2.77;;;17.10;91.10;;;;;;5141742;27;20513;-38
2021/05/15 05:32:55;;;;;;;6.57;3.07;;;17.00;90.80;;;;;;5146011;27;20536;-39
2021/05/15 05:35:24;;;;;;;7.00;2.93;;;16.90;90.50;;;;;;5146706;27;20443;-39
2021/05/15 05:37:53;;;;;;;3.17;2.97;;;16.80;90.40;;;;;;5147058;27;21059;-39
2021/05/15 05:40:21;;;;;;;4.43;2.80;;;16.70;90.50;;;;;;5146474;27;20456;-39
2021/05/15 05:42:51;;;;;;;3.43;2.67;;;16.60;90.40;;;;;;5141542;27;20482;-35
2021/05/15 05:45:20;;;;;;;5.77;3.10;;;16.60;90.50;;;;;;5145391;27;20472;-39
2021/05/15 05:47:49;;;;;;;3.37;2.93;;;16.60;91.00;;;;;;5131536;27;20445;-40
2021/05/15 05:50:18;;;;;;;4.40;3.30;;;16.50;91.10;;;;;;5146370;27;20462;-38
2021/05/15 05:52:46;;;;;;;6.10;3.50;;;16.40;91.10;;;;;;5146325;27;20474;-37
2021/05/15 05:55:15;;;;;;;3.60;3.17;;;16.40;91.50;;;;;;5146326;27;20456;-37
2021/05/15 05:57:43;;;;;;;4.50;3.00;;;16.30;91.60;;;;;;5146433;27;20468;-37
2021/05/15 06:00:14;;;;;;;5.03;3.20;;;16.30;91.30;;;;;;5145632;27;20457;-38
2021/05/15 06:02:43;;;;;;;6.93;3.90;;;16.20;91.60;;;;;;5145985;27;20433;-37
2021/05/15 06:05:12;;;;;;;5.20;3.40;;;16.20;91.80;;;;;;5146127;27;20445;-39
2021/05/15 06:07:41;;;;;;;6.03;3.23;;;16.10;91.80;;;;;;5146869;27;20498;-37
2021/05/15 06:10:10;;;;;;;3.40;3.07;;;16.10;92.10;;;;;;5146107;27;20449;-38
2021/05/15 06:12:39;;;;;;;6.20;3.43;;;16.00;92.50;;;;;;5146864;27;20498;-37
2021/05/15 06:15:09;;;;;;;4.80;3.70;;;15.90;92.40;;;;;;5144868;27;20437;-38
2021/05/15 06:17:40;;;;;;;2.90;2.70;;;15.90;92.70;;;;;;5146210;27;20461;-39
2021/05/15 06:20:09;;;;;;;5.60;3.73;;;15.80;92.90;;;;;;5144990;27;20449;-39
2021/05/15 06:22:37;;;;;;;4.43;3.57;;;15.80;93.20;;;;;;5146346;27;20449;-35
2021/05/15 06:25:06;;;;;;;3.63;3.10;;;15.70;93.80;;;;;;5145384;27;20445;-38
2021/05/15 06:27:35;;;;;;;5.03;4.03;;;15.70;94.00;;;;;;5142319;27;20452;-38
2021/05/15 06:30:04;;;;;;;4.80;3.20;;;15.60;94.20;;;;;;5144961;27;20444;-36
2021/05/15 06:32:32;;;;;;;4.80;3.60;;;15.50;94.90;;;;;;5146104;27;20462;-38
2021/05/15 06:35:02;;;;;;;4.30;3.10;;;15.40;94.70;;;;;;5145264;27;20516;-38
2021/05/15 06:37:31;;;;;;;7.10;3.67;;;15.40;94.70;;;;;;5141161;27;20944;-36
2021/05/15 06:39:59;;;;;;;6.40;3.87;;;15.40;94.50;;;;;;5145553;27;20460;-37
2021/05/15 06:42:28;;;;;;;3.60;3.27;;;15.30;94.30;;;;;;5145020;27;20460;-36
2021/05/15 06:44:56;;;;;;;4.40;3.70;;;15.20;94.00;;;;;;5144476;27;20468;-39
2021/05/15 06:47:25;;;;;;;6.87;3.40;;;15.20;94.50;;;;;;5145718;27;20449;-38
2021/05/15 06:49:53;;;;;;;4.30;3.83;;;15.10;94.20;;;;;;5145583;27;20592;-38
2021/05/15 06:52:23;;;;;;;6.17;3.67;;;15.10;94.20;;;;;;5145669;27;20464;-38
2021/05/15 06:54:52;;;;;;;4.00;3.17;;;15.10;94.50;;;;;;5128586;27;20453;-38
2021/05/15 06:57:20;;;;;;;4.27;3.57;;;15.00;94.40;;;;;;5145928;27;20862;-37
2021/05/15 06:59:49;;;;;;;3.67;3.07;;;15.00;95.00;;;;;;5144720;27;20566;-38
2021/05/15 07:02:18;;;;;;;4.30;3.90;;;14.90;94.70;;;;;;5145140;27;20452;-38
2021/05/15 07:04:46;;;;;;;4.60;3.37;;;14.80;95.20;;;;;;5144391;27;20449;-39
2021/05/15 07:07:15;;;;;;;3.70;3.40;;;14.90;95.10;;;;;;5145156;27;20449;-39
2021/05/15 07:09:44;;;;;;;4.83;3.40;;;14.70;95.50;;;;;;5145198;27;20445;-39
2021/05/15 07:12:13;;;;;;;6.30;3.73;;;14.70;95.90;;;;;;5145495;27;20458;-39
2021/05/15 07:14:42;;;;;;;4.10;3.30;;;14.70;95.50;;;;;;5143448;27;20456;-37
2021/05/15 07:17:10;;;;;;;5.83;4.03;;;14.70;95.70;;;;;;5142437;27;20471;-40
2021/05/15 07:19:39;;;;;;;6.03;3.90;;;14.60;95.60;;;;;;5144522;27;20452;-38
2021/05/15 07:22:08;;;;;;;6.63;3.40;;;14.50;96.10;;;;;;5144399;27;20480;-37
2021/05/15 07:24:36;;;;;;;5.23;3.83;;;14.50;96.60;;;;;;5144511;27;20817;-33
2021/05/15 07:27:07;;;;;;;3.97;3.57;;;14.40;96.60;;;;;;5138368;27;20448;-39
2021/05/15 07:29:35;;;;;;;6.27;3.80;;;14.40;96.70;;;;;;5143618;27;20449;-38
2021/05/15 07:32:04;;;;;;;11.27;4.20;;;14.30;97.30;;;;;;5144910;27;20445;-39
2021/05/15 07:34:32;;;;;;;4.00;3.60;;;14.30;97.50;;;;;;5143495;27;20866;-36
2021/05/15 07:37:01;;;;;;;5.90;3.30;;;14.30;97.80;;;;;;5127816;27;20524;-38
2021/05/15 07:39:30;;;;;;;4.60;2.90;;;14.30;98.00;;;;;;5144231;27;20433;-39
2021/05/15 07:41:58;;;;;;;3.30;2.90;;;14.20;98.00;;;;;;5144676;27;20494;-38
2021/05/15 07:44:28;;;;;;;4.50;3.37;;;14.20;98.50;;;;;;5142030;27;20456;-36
2021/05/15 07:46:57;;;;;;;7.20;3.63;;;14.10;98.80;;;;;;5144566;27;20467;-36
2021/05/15 07:49:25;;;;;;;4.43;3.93;;;14.10;98.80;;;;;;5144569;27;20437;-38
2021/05/15 07:51:54;;;;;;;7.10;5.07;;;14.00;98.90;;;;;;5144480;27;20444;-38
2021/05/15 07:54:23;;;;;;;4.50;3.30;;;13.90;98.80;;;;;;5143345;27;20505;-37
2021/05/15 07:56:54;;;;;;;5.07;3.53;;;13.80;99.00;;;;;;5144565;27;20441;-37
2021/05/15 07:59:22;;;;;;;5.17;3.70;;;13.80;99.00;;;;;;5143560;27;20623;-38
2021/05/15 08:01:52;;;;;;;4.30;3.30;;;13.80;99.10;;;;;;5143892;27;20505;-39
2021/05/15 08:04:21;;;;;;;7.50;4.37;;;13.80;99.70;;;;;;5143048;27;20444;-37
2021/05/15 08:06:50;;;;;;;5.50;3.83;;;13.70;99.50;;;;;;5144290;27;20445;-37
2021/05/15 08:09:18;;;;;;;6.60;3.60;;;13.70;99.70;;;;;;5143986;27;20483;-34
2021/05/15 08:11:47;;;;;;;3.93;3.30;;;13.70;99.90;;;;;;5143949;27;20445;-35
2021/05/15 08:14:15;;;;;;;5.00;3.80;;;13.70;99.90;;;;;;5142193;27;20441;-38
2021/05/15 08:16:44;;;;;;;7.13;3.23;;;13.60;99.90;;;;;;5143374;27;20436;-38
2021/05/15 08:19:13;;;;;;;4.43;3.43;;;13.60;99.90;;;;;;5143588;27;20962;-37
2021/05/15 08:21:42;;;;;;;5.67;3.80;;;13.60;99.90;;;;;;5143673;27;20521;-38
2021/05/15 08:24:11;;;;;;;6.10;4.00;;;13.60;99.90;;;;;;5143476;27;20452;-37
2021/05/15 08:26:40;;;;;;;5.40;3.87;;;13.50;99.90;;;;;;5140613;27;20445;-38
2021/05/15 08:29:11;;;;;;;5.23;4.73;;;13.40;99.90;;;;;;5142922;27;20449;-38
2021/05/15 08:31:40;;;;;;;3.93;3.37;;;13.40;99.90;;;;;;5143903;27;20516;-37
2021/05/15 08:34:09;;;;;;;4.00;3.33;;;13.40;99.90;;;;;;5143461;27;20449;-38
2021/05/15 08:36:39;;;;;;;6.83;3.97;;;13.30;99.90;;;;;;5143039;27;20779;-38
2021/05/15 08:39:08;;;;;;;7.23;3.70;;;13.20;99.90;;;;;;5143368;27;20555;-35
2021/05/15 08:41:37;;;;;;;5.47;4.90;;;13.20;99.90;;;;;;5143579;27;20461;-37
2021/05/15 08:44:07;;;;;;;4.80;3.60;;;13.20;99.90;;;;;;5142489;27;20765;-38
2021/05/15 08:46:37;;;;;;;7.43;3.97;;;13.10;99.90;;;;;;5143469;28;20459;-39
2021/05/15 08:49:06;;;;;;;3.97;3.40;;;13.10;99.90;;;;;;5143028;28;21006;-38
2021/05/15 08:51:36;;;;;;;7.53;3.97;;;13.10;99.90;;;;;;5143640;28;20449;-36
2021/05/15 08:54:06;;;;;;;5.30;3.40;;;13.00;99.90;;;;;;5143049;28;20452;-36
2021/05/15 08:56:35;;;;;;;6.87;3.73;;;13.00;99.90;;;;;;5143434;28;20464;-37
2021/05/15 08:59:04;;;;;;;4.50;3.97;;;13.00;99.90;;;;;;5142700;28;20476;-39
2021/05/15 09:01:33;;;;;;;5.20;3.80;;;12.90;99.90;;;;;;5143219;28;20771;-38
2021/05/15 09:04:01;;;;;;;4.33;3.93;;;12.90;99.90;;;;;;5142737;28;20449;-38
2021/05/15 09:06:32;;;;;;;4.65;3.83;;;12.80;99.90;;;;;;5144916;27;20460;-38
2021/05/15 09:09:02;;;;;;;6.15;4.07;;;12.70;99.90;;;;;;5147043;27;20195;-37
2021/05/15 09:11:34;;;;;;;6.30;3.40;;;12.70;99.90;;;;;;5147429;27;20584;-35
2021/05/15 09:14:05;;;;;;;4.43;3.40;;;12.70;99.90;;;;;;5147060;27;20255;-36
2021/05/15 09:16:46;;;;;;;8.03;3.77;;;12.60;99.90;;;;;;5146775;27;20502;-39
2021/05/15 09:19:20;;;;;;;6.03;3.80;;;12.50;99.90;;;;;;5146849;27;20480;-38
2021/05/15 09:22:02;;;;;;;9.20;3.87;;;12.50;99.90;;;;;;5142128;27;20472;-40
2021/05/15 09:24:35;;;;;;;7.00;4.10;;;12.50;99.90;;;;;;5147379;27;20448;-36
2021/05/15 09:27:09;;;;;;;7.28;3.63;;;12.40;99.90;;;;;;5135780;27;20526;-39
2021/05/15 09:29:43;;;;;;;7.03;4.60;;;12.30;99.90;;;;;;5143811;27;20199;-40
2021/05/15 09:32:13;;;;;;;6.00;3.90;;;12.30;99.90;;;;;;5146860;27;20456;-38
2021/05/15 09:34:51;;;;;;;4.65;4.03;;;12.30;99.90;;;;;;5146504;27;20252;-37
2021/05/15 09:37:30;;;;;;;5.80;3.53;;;12.20;99.90;;;;;;5146301;27;20255;-38
2021/05/15 09:40:15;;;;;;;4.47;3.47;;;12.20;99.90;;;;;;5131398;27;20448;-38
2021/05/15 09:43:03;;;;;;;7.87;3.80;;;12.10;99.90;;;;;;5146674;27;20225;-38
2021/05/15 09:45:36;;;;;;;4.90;3.88;;;12.00;99.90;;;;;;5145647;27;20537;-39
2021/05/15 09:48:09;;;;;;;7.38;3.85;;;12.00;99.90;;;;;;5146172;27;20307;-36
2021/05/15 09:50:41;;;;;;;7.10;4.05;;;12.00;99.90;;;;;;5146337;27;20202;-37
2021/05/15 09:53:14;;;;;;;5.30;3.83;;;11.90;99.90;;;;;;5146334;27;20248;-42
2021/05/15 09:55:45;;;;;;;10.27;4.05;;;11.90;99.90;;;;;;5146302;27;20623;-33
2021/05/15 09:58:17;;;;;;;5.30;3.85;;;11.90;99.90;;;;;;5145703;27;20238;-35
2021/05/15 10:00:49;;;;;;;8.00;4.03;;;11.80;99.90;;;;;;5145446;27;20210;-37
2021/05/15 10:03:21;;;;;;;6.80;4.00;;;11.80;99.90;;;;;;5145592;27;20200;-37
2021/05/15 10:06:05;;;;;;;4.60;3.85;;;11.80;99.90;;;;;;5146608;27;20255;-36
2021/05/15 10:08:37;;;;;;;6.20;3.90;;;11.70;99.90;;;;;;5146400;27;20275;-35
2021/05/15 10:11:08;;;;;;;6.63;3.75;;;11.70;99.90;;;;;;5146544;27;20201;-35
2021/05/15 10:13:42;;;;;;;10.27;4.72;;;11.70;99.90;;;;;;5145487;27;20663;-36
2021/05/15 10:16:14;;;;;;;6.20;4.22;;;11.60;99.90;;;;;;5146397;27;20518;-39
2021/05/15 10:18:44;;;;;;;8.90;4.57;;;11.60;99.90;;;;;;5144678;27;20215;-37
2021/05/15 10:21:14;;;;;;;7.88;4.28;;;11.50;99.90;;;;;;5131677;27;20433;-35
2021/05/15 10:23:46;;;;;;;6.78;4.00;;;11.50;99.90;;;;;;5146240;27;20236;-38
2021/05/15 10:26:20;;;;;;;6.55;4.20;;;11.50;99.90;;;;;;5141499;27;20195;-38
2021/05/15 10:29:02;;;;;;;5.75;3.90;;;11.40;99.90;;;;;;5143216;27;20278;-37
2021/05/15 10:31:40;;;;;;;5.70;4.22;;;11.50;99.90;;;;;;5146000;27;20203;-36
2021/05/15 10:34:11;;;;;;;8.80;4.05;;;11.40;99.90;;;;;;5144949;27;20595;-38
2021/05/15 10:36:46;;;;;;;8.52;4.43;;;11.40;99.90;;;;;;5145501;27;20256;-38
2021/05/15 10:39:27;;;;;;;6.13;3.90;;;11.30;99.90;;;;;;5145576;27;20267;-37
2021/05/15 10:41:58;;;;;;;7.53;3.92;;;11.30;99.90;;;;;;5130751;27;20210;-35
2021/05/15 10:44:40;;;;;;;7.28;3.80;;;11.30;99.90;;;;;;5144857;27;20227;-35
2021/05/15 10:47:11;;;;;;;6.00;3.97;;;11.20;99.90;;;;;;5145966;27;20210;-39
2021/05/15 10:49:44;;;;;;;5.28;4.13;;;11.20;99.90;;;;;;5144839;27;20211;-36
2021/05/15 10:52:17;;;;;;;11.48;4.70;;;11.20;99.90;;;;;;5144759;27;20206;-35
2021/05/15 10:54:50;;;;;;;7.28;3.90;;;11.10;99.90;;;;;;5145459;27;20195;-36
2021/05/15 10:57:24;;;;;;;6.75;4.82;;;11.10;99.90;;;;;;5146051;27;20188;-39
2021/05/15 10:59:59;;;;;;;5.70;4.47;;;11.10;99.90;;;;;;5127867;27;20223;-37
2021/05/15 11:02:34;;;;;;;8.23;4.28;;;11.00;99.90;;;;;;5140076;27;20236;-35
2021/05/15 11:05:10;;;;;;;6.22;4.25;;;11.00;99.90;;;;;;5145063;27;20195;-37
2021/05/15 11:07:42;;;;;;;9.30;4.75;;;10.90;99.90;;;;;;5145197;27;20291;-39
2021/05/15 11:10:16;;;;;;;5.55;4.50;;;10.90;99.90;;;;;;5144522;27;20209;-37
2021/05/15 11:12:47;;;;;;;10.85;4.63;;;10.90;99.90;;;;;;5145722;27;20184;-38
2021/05/15 11:15:20;;;;;;;10.18;4.38;;;10.90;99.90;;;;;;5143779;27;20200;-39
2021/05/15 11:18:02;;;;;;;8.52;5.25;;;10.80;99.90;;;;;;5145163;27;20214;-36
2021/05/15 11:20:42;;;;;;;7.20;4.50;;;10.90;99.90;;;;;;5144512;27;20202;-32
2021/05/15 11:23:14;;;;;;;8.50;4.55;;;10.80;99.90;;;;;;5144748;27;20202;-34
2021/05/15 11:25:55;;;;;;;8.15;4.90;;;10.70;99.90;;;;;;5144696;27;20207;-36
2021/05/15 11:28:26;;;;;;;10.50;5.03;;;10.70;99.90;;;;;;5143053;27;20331;-32
2021/05/15 11:30:58;;;;;;;12.30;5.50;;;10.70;99.90;;;;;;5144485;27;20282;-36
2021/05/15 11:33:29;;;;;;;7.93;4.75;;;10.60;99.90;;;;;;5144301;27;20199;-37
2021/05/15 11:36:00;;;;;;;6.82;5.30;;;10.60;99.90;;;;;;5144429;27;20230;-36
2021/05/15 11:38:31;;;;;;;6.90;4.65;;;10.60;99.90;;;;;;5144167;27;20223;-38
2021/05/15 11:41:03;;;;;;;9.27;5.13;;;10.50;99.90;;;;;;5144062;27;20214;-38
2021/05/15 11:43:35;;;;;;;10.30;4.25;;;10.50;99.90;;;;;;5142958;27;20184;-36
2021/05/15 11:46:08;;;;;;;8.88;4.55;;;10.50;99.90;;;;;;5144566;27;20280;-38
2021/05/15 11:48:42;;;;;;;11.43;5.45;;;10.60;99.90;;;;;;5143871;27;20574;-36
2021/05/15 11:51:13;;;;;;;8.20;4.90;;;10.50;99.90;;;;;;5143739;27;20205;-34
2021/05/15 11:53:45;;;;;;;10.95;5.20;;;10.50;99.90;;;;;;5143636;27;20223;-36
2021/05/15 11:56:17;;;;;;;8.45;4.10;;;10.40;99.90;;;;;;5143702;27;20226;-37
2021/05/15 11:58:49;;;;;;;7.10;4.55;;;10.40;99.90;;;;;;5142709;27;20527;-37
2021/05/15 12:01:21;;;;;;;8.38;4.72;;;10.40;99.90;;;;;;5144152;27;20191;-36
2021/05/15 12:03:52;;;;;;;10.65;5.57;;;10.30;99.90;;;;;;5143540;27;20259;-34
2021/05/15 12:06:23;;;;;;;7.45;4.88;;;10.30;99.90;;;;;;5144081;27;20242;-36
2021/05/15 12:08:53;;;;;;;12.98;5.32;;;10.30;99.90;;;;;;5143165;27;20214;-37
2021/05/15 12:11:26;;;;;;;7.68;4.97;;;10.30;99.90;;;;;;5143528;27;20231;-39
2021/05/15 12:13:57;;;;;;;7.95;4.70;;;10.30;99.90;;;;;;5142848;27;20191;-39
2021/05/15 12:16:28;;;;;;;8.98;4.97;;;10.20;99.90;;;;;;5144317;27;20287;-37
2021/05/15 12:18:59;;;;;;;13.73;5.40;;;10.20;99.90;;;;;;5142985;27;20223;-36
2021/05/15 12:21:29;;;;;;;6.75;5.15;;;10.20;99.90;;;;;;5143456;27;20218;-36
2021/05/15 12:24:07;;;;;;;8.35;5.57;;;10.10;99.90;;;;;;5143367;27;20226;-39
2021/05/15 12:26:38;;;;;;;10.98;5.40;;;10.10;99.90;;;;;;5135716;27;20199;-37
2021/05/15 12:29:08;;;;;;;8.00;4.75;;;10.10;99.90;;;;;;5139913;27;20206;-38
2021/05/15 12:31:43;;;;;;;8.15;4.80;;;10.00;99.90;;;;;;5143961;27;20191;-38
2021/05/15 12:34:14;;;;;;;10.77;5.05;;;10.10;99.90;;;;;;5142980;27;20206;-38
2021/05/15 12:36:44;;;;;;;12.07;5.28;;;10.00;99.90;;;;;;5143956;27;20196;-36
2021/05/15 12:39:15;;;;;;;11.40;5.18;;;9.90;99.90;;;;;;5143044;27;20230;-37
2021/05/15 12:41:45;;;;;;;9.48;4.97;;;9.80;99.90;;;;;;5127202;27;20271;-38
2021/05/15 12:44:17;;;;;;;11.35;5.63;;;9.80;99.90;;;;;;5142419;27;20191;-38
2021/05/15 12:46:51;;;;;;;9.38;4.68;;;9.90;99.90;;;;;;5143616;28;20225;-35
2021/05/15 12:49:22;;;;;;;5.43;4.40;;;9.90;99.90;;;;;;5142406;28;20202;-36
2021/05/15 12:51:55;;;;;;;9.02;5.57;;;9.90;99.90;;;;;;5143021;28;20238;-36
2021/05/15 12:54:29;;;;;;;11.10;4.85;;;9.90;99.90;;;;;;5142812;28;20199;-37
2021/05/15 12:57:03;;;;;;;8.60;5.43;;;9.90;99.90;;;;;;5137560;28;20244;-36
2021/05/15 12:59:37;;;;;;;11.18;5.60;;;9.90;99.90;;;;;;5142496;28;20227;-37
2021/05/15 13:02:15;;;;;;;10.25;5.53;;;9.90;99.90;;;;;;5143278;28;20199;-37